sensor_id;sensor_type;location;lat;lon;timestamp;temperature;humidity
1778;DHT22;71547;50.146;8.174;2023-07-29T00:02:18;17.40;99.90
1778;DHT22;71547;50.146;8.174;2023-07-29T00:04:47;17.40;99.90
1778;DHT22;71547;50.146;8.174;2023-07-29T00:07:15;17.40;99.90
1778;DHT22;71547;50.146;8.174;2023-07-29T00:09:44;17.40;99.90
1778;DHT22;71547;50.146;8.174;2023-07-29T00:12:12;17.50;99.90
1778;DHT22;71547;50.146;8.174;2023-07-29T00:14:39;17.50;99.90
1778;DHT22;71547;50.146;8.174;2023-07-29T00:17:06;17.40;99.90
1778;DHT22;71547;50.146;8.174;2023-07-29T00:19:34;17.40;99.90
1778;DHT22;71547;50.146;8.174;2023-07-29T00:22:02;17.30;99.90
1778;DHT22;71547;50.146;8.174;2023-07-29T00:24:29;17.30;99.90
1778;DHT22;71547;50.146;8.174;2023-07-29T00:27:01;17.30;99.90
1778;DHT22;71547;50.146;8.174;2023-07-29T00:29:28;17.30;99.90
1778;DHT22;71547;50.146;8.174;2023-07-29T00:31:55;17.30;99.90
1778;DHT22;71547;50.146;8.174;2023-07-29T00:34:23;17.30;99.90
1778;DHT22;71547;50.146;8.174;2023-07-29T00:36:50;17.30;99.90
1778;DHT22;71547;50.146;8.174;2023-07-29T00:39:17;17.30;99.90
1778;DHT22;71547;50.146;8.174;2023-07-29T00:41:48;17.30;99.90
1778;DHT22;71547;50.146;8.174;2023-07-29T00:44:17;17.40;99.90
1778;DHT22;71547;50.146;8.174;2023-07-29T00:46:46;17.40;99.90
1778;DHT22;71547;50.146;8.174;2023-07-29T00:49:15;17.40;99.90
1778;DHT22;71547;50.146;8.174;2023-07-29T00:51:42;17.50;99.90
1778;DHT22;71547;50.146;8.174;2023-07-29T00:54:10;17.50;99.90
1778;DHT22;71547;50.146;8.174;2023-07-29T00:56:37;17.50;99.90
1778;DHT22;71547;50.146;8.174;2023-07-29T00:59:05;17.50;99.90
1778;DHT22;71547;50.146;8.174;2023-07-29T01:01:34;17.50;99.90
1778;DHT22;71547;50.146;8.174;2023-07-29T01:04:03;17.50;99.90
1778;DHT22;71547;50.146;8.174;2023-07-29T01:06:37;17.50;99.90
1778;DHT22;71547;50.146;8.174;2023-07-29T01:09:14;17.40;99.90
1778;DHT22;71547;50.146;8.174;2023-07-29T01:12:01;17.40;99.90
1778;DHT22;71547;50.146;8.174;2023-07-29T01:14:37;17.40;99.90
1778;DHT22;71547;50.146;8.174;2023-07-29T01:17:15;17.40;99.90
1778;DHT22;71547;50.146;8.174;2023-07-29T01:19:59;17.40;99.90
1778;DHT22;71547;50.146;8.174;2023-07-29T01:22:35;17.40;99.90
1778;DHT22;71547;50.146;8.174;2023-07-29T01:25:06;17.40;99.90
1778;DHT22;71547;50.146;8.174;2023-07-29T01:27:53;17.40;99.90
1778;DHT22;71547;50.146;8.174;2023-07-29T01:30:30;17.40;99.90
1778;DHT22;71547;50.146;8.174;2023-07-29T01:33:03;17.40;99.90
1778;DHT22;71547;50.146;8.174;2023-07-29T01:35:42;17.40;99.90
1778;DHT22;71547;50.146;8.174;2023-07-29T01:38:17;17.40;99.90
1778;DHT22;71547;50.146;8.174;2023-07-29T01:40:51;17.40;99.90
1778;DHT22;71547;50.146;8.174;2023-07-29T01:43:20;17.40;99.90
1778;DHT22;71547;50.146;8.174;2023-07-29T01:45:54;17.40;99.90
1778;DHT22;71547;50.146;8.174;2023-07-29T01:48:22;17.40;99.90
1778;DHT22;71547;50.146;8.174;2023-07-29T01:50:50;17.40;99.90
1778;DHT22;71547;50.146;8.174;2023-07-29T01:53:17;17.30;99.90
1778;DHT22;71547;50.146;8.174;2023-07-29T01:55:45;17.30;99.90
1778;DHT22;71547;50.146;8.174;2023-07-29T01:58:14;17.40;99.90
1778;DHT22;71547;50.146;8.174;2023-07-29T02:00:42;17.30;99.90
1778;DHT22;71547;50.146;8.174;2023-07-29T02:03:09;17.20;99.90
1778;DHT22;71547;50.146;8.174;2023-07-29T02:05:37;17.30;99.90
1778;DHT22;71547;50.146;8.174;2023-07-29T02:08:04;17.30;99.90
1778;DHT22;71547;50.146;8.174;2023-07-29T02:10:32;17.30;99.90
1778;DHT22;71547;50.146;8.174;2023-07-29T02:13:00;17.30;99.90
1778;DHT22;71547;50.146;8.174;2023-07-29T02:15:32;17.30;99.90
1778;DHT22;71547;50.146;8.174;2023-07-29T02:18:00;17.30;99.90
1778;DHT22;71547;50.146;8.174;2023-07-29T02:20:29;17.30;99.90
1778;DHT22;71547;50.146;8.174;2023-07-29T02:22:57;17.30;99.90
1778;DHT22;71547;50.146;8.174;2023-07-29T02:25:25;17.30;99.90
1778;DHT22;71547;50.146;8.174;2023-07-29T02:27:53;17.30;99.90
1778;DHT22;71547;50.146;8.174;2023-07-29T02:30:21;17.30;99.90
1778;DHT22;71547;50.146;8.174;2023-07-29T02:32:50;17.30;99.90
1778;DHT22;71547;50.146;8.174;2023-07-29T02:35:18;17.30;99.90
1778;DHT22;71547;50.146;8.174;2023-07-29T02:37:46;17.30;99.90
1778;DHT22;71547;50.146;8.174;2023-07-29T02:40:13;17.30;99.90
1778;DHT22;71547;50.146;8.174;2023-07-29T02:42:41;17.40;99.90
1778;DHT22;71547;50.146;8.174;2023-07-29T02:45:09;17.40;99.90
1778;DHT22;71547;50.146;8.174;2023-07-29T02:47:38;17.40;99.90
1778;DHT22;71547;50.146;8.174;2023-07-29T02:50:08;17.40;99.90
1778;DHT22;71547;50.146;8.174;2023-07-29T02:52:36;17.30;99.90
1778;DHT22;71547;50.146;8.174;2023-07-29T02:55:04;17.30;99.90
1778;DHT22;71547;50.146;8.174;2023-07-29T02:57:33;17.30;99.90
1778;DHT22;71547;50.146;8.174;2023-07-29T03:00:03;17.30;99.90
1778;DHT22;71547;50.146;8.174;2023-07-29T03:02:35;17.30;99.90
1778;DHT22;71547;50.146;8.174;2023-07-29T03:05:04;17.30;99.90
1778;DHT22;71547;50.146;8.174;2023-07-29T03:07:33;17.20;99.90
1778;DHT22;71547;50.146;8.174;2023-07-29T03:10:01;17.20;99.90
1778;DHT22;71547;50.146;8.174;2023-07-29T03:12:28;17.20;99.90
1778;DHT22;71547;50.146;8.174;2023-07-29T03:14:56;17.20;99.90
1778;DHT22;71547;50.146;8.174;2023-07-29T03:17:24;17.20;99.90
1778;DHT22;71547;50.146;8.174;2023-07-29T03:19:52;17.30;99.90
1778;DHT22;71547;50.146;8.174;2023-07-29T03:22:20;17.30;99.90
1778;DHT22;71547;50.146;8.174;2023-07-29T03:24:50;17.30;99.90
1778;DHT22;71547;50.146;8.174;2023-07-29T03:27:18;17.40;99.90
1778;DHT22;71547;50.146;8.174;2023-07-29T03:29:46;17.40;99.90
1778;DHT22;71547;50.146;8.174;2023-07-29T03:32:14;17.40;99.90
1778;DHT22;71547;50.146;8.174;2023-07-29T03:34:41;17.40;99.90
1778;DHT22;71547;50.146;8.174;2023-07-29T03:37:10;17.40;99.90
1778;DHT22;71547;50.146;8.174;2023-07-29T03:39:56;17.40;99.90
1778;DHT22;71547;50.146;8.174;2023-07-29T03:42:24;17.40;99.90
1778;DHT22;71547;50.146;8.174;2023-07-29T03:44:52;17.40;99.90
1778;DHT22;71547;50.146;8.174;2023-07-29T03:47:20;17.40;99.90
1778;DHT22;71547;50.146;8.174;2023-07-29T03:49:48;17.40;99.90
1778;DHT22;71547;50.146;8.174;2023-07-29T03:52:15;17.40;99.90
1778;DHT22;71547;50.146;8.174;2023-07-29T03:54:43;17.40;99.90
1778;DHT22;71547;50.146;8.174;2023-07-29T03:57:12;17.40;99.90
1778;DHT22;71547;50.146;8.174;2023-07-29T03:59:40;17.40;99.90
1778;DHT22;71547;50.146;8.174;2023-07-29T04:02:07;17.40;99.90
1778;DHT22;71547;50.146;8.174;2023-07-29T04:04:35;17.40;99.90
1778;DHT22;71547;50.146;8.174;2023-07-29T04:07:03;17.40;99.90
1778;DHT22;71547;50.146;8.174;2023-07-29T04:09:32;17.40;99.90
1778;DHT22;71547;50.146;8.174;2023-07-29T04:12:00;17.50;99.90
1778;DHT22;71547;50.146;8.174;2023-07-29T04:14:29;17.40;99.90
1778;DHT22;71547;50.146;8.174;2023-07-29T04:16:57;17.40;99.90
1778;DHT22;71547;50.146;8.174;2023-07-29T04:19:25;17.40;99.90
1778;DHT22;71547;50.146;8.174;2023-07-29T04:21:53;17.40;99.90
1778;DHT22;71547;50.146;8.174;2023-07-29T04:24:22;17.40;99.90
1778;DHT22;71547;50.146;8.174;2023-07-29T04:26:50;17.30;99.90
1778;DHT22;71547;50.146;8.174;2023-07-29T04:29:18;17.30;99.90
1778;DHT22;71547;50.146;8.174;2023-07-29T04:31:47;17.30;99.90
1778;DHT22;71547;50.146;8.174;2023-07-29T04:34:16;17.30;99.90
1778;DHT22;71547;50.146;8.174;2023-07-29T04:36:44;17.30;99.90
1778;DHT22;71547;50.146;8.174;2023-07-29T04:39:15;17.30;99.90
1778;DHT22;71547;50.146;8.174;2023-07-29T04:41:43;17.30;99.90
1778;DHT22;71547;50.146;8.174;2023-07-29T04:44:10;17.30;99.90
1778;DHT22;71547;50.146;8.174;2023-07-29T04:46:38;17.40;99.90
1778;DHT22;71547;50.146;8.174;2023-07-29T04:49:07;17.40;99.90
1778;DHT22;71547;50.146;8.174;2023-07-29T04:51:35;17.50;99.90
1778;DHT22;71547;50.146;8.174;2023-07-29T04:54:04;17.50;99.90
1778;DHT22;71547;50.146;8.174;2023-07-29T04:56:32;17.50;99.90
1778;DHT22;71547;50.146;8.174;2023-07-29T04:59:00;17.50;99.90
1778;DHT22;71547;50.146;8.174;2023-07-29T05:01:28;17.50;99.90
1778;DHT22;71547;50.146;8.174;2023-07-29T05:03:56;17.50;99.90
1778;DHT22;71547;50.146;8.174;2023-07-29T05:06:27;17.60;99.90
1778;DHT22;71547;50.146;8.174;2023-07-29T05:08:57;17.50;99.90
1778;DHT22;71547;50.146;8.174;2023-07-29T05:11:25;17.50;99.90
1778;DHT22;71547;50.146;8.174;2023-07-29T05:13:53;17.60;99.90
1778;DHT22;71547;50.146;8.174;2023-07-29T05:16:21;17.60;99.90
1778;DHT22;71547;50.146;8.174;2023-07-29T05:18:49;17.70;99.90
1778;DHT22;71547;50.146;8.174;2023-07-29T05:21:16;17.70;99.90
1778;DHT22;71547;50.146;8.174;2023-07-29T05:24:03;17.80;99.90
1778;DHT22;71547;50.146;8.174;2023-07-29T05:26:35;17.80;99.90
1778;DHT22;71547;50.146;8.174;2023-07-29T05:29:03;17.90;99.90
1778;DHT22;71547;50.146;8.174;2023-07-29T05:31:31;17.90;99.90
1778;DHT22;71547;50.146;8.174;2023-07-29T05:33:59;17.90;99.90
1778;DHT22;71547;50.146;8.174;2023-07-29T05:36:27;17.90;99.90
1778;DHT22;71547;50.146;8.174;2023-07-29T05:38:56;17.90;99.90
1778;DHT22;71547;50.146;8.174;2023-07-29T05:41:26;17.90;99.90
1778;DHT22;71547;50.146;8.174;2023-07-29T05:43:55;17.90;99.90
1778;DHT22;71547;50.146;8.174;2023-07-29T05:46:26;17.90;99.90
1778;DHT22;71547;50.146;8.174;2023-07-29T05:48:53;17.90;99.90
1778;DHT22;71547;50.146;8.174;2023-07-29T05:51:22;17.90;99.90
1778;DHT22;71547;50.146;8.174;2023-07-29T05:53:49;17.90;99.90
1778;DHT22;71547;50.146;8.174;2023-07-29T05:56:16;17.90;99.90
1778;DHT22;71547;50.146;8.174;2023-07-29T05:58:45;18.00;99.90
1778;DHT22;71547;50.146;8.174;2023-07-29T06:01:12;17.90;99.90
1778;DHT22;71547;50.146;8.174;2023-07-29T06:03:40;17.90;99.90
1778;DHT22;71547;50.146;8.174;2023-07-29T06:06:08;17.90;99.90
1778;DHT22;71547;50.146;8.174;2023-07-29T06:08:36;17.90;99.90
1778;DHT22;71547;50.146;8.174;2023-07-29T06:11:03;17.90;99.90
1778;DHT22;71547;50.146;8.174;2023-07-29T06:13:33;17.90;99.90
1778;DHT22;71547;50.146;8.174;2023-07-29T06:16:03;17.90;99.90
1778;DHT22;71547;50.146;8.174;2023-07-29T06:18:34;17.80;99.90
1778;DHT22;71547;50.146;8.174;2023-07-29T06:21:02;17.80;99.90
1778;DHT22;71547;50.146;8.174;2023-07-29T06:23:34;17.80;99.90
1778;DHT22;71547;50.146;8.174;2023-07-29T06:26:02;17.70;99.90
1778;DHT22;71547;50.146;8.174;2023-07-29T06:28:30;17.70;99.90
1778;DHT22;71547;50.146;8.174;2023-07-29T06:30:58;17.70;99.90
1778;DHT22;71547;50.146;8.174;2023-07-29T06:33:28;17.70;99.90
1778;DHT22;71547;50.146;8.174;2023-07-29T06:35:56;17.70;99.90
1778;DHT22;71547;50.146;8.174;2023-07-29T06:38:24;17.60;99.90
1778;DHT22;71547;50.146;8.174;2023-07-29T06:40:52;17.70;99.90
1778;DHT22;71547;50.146;8.174;2023-07-29T06:43:19;17.60;99.90
1778;DHT22;71547;50.146;8.174;2023-07-29T06:45:48;17.60;99.90
1778;DHT22;71547;50.146;8.174;2023-07-29T06:48:18;17.60;99.90
1778;DHT22;71547;50.146;8.174;2023-07-29T06:50:49;17.60;99.90
1778;DHT22;71547;50.146;8.174;2023-07-29T06:53:22;17.50;99.90
1778;DHT22;71547;50.146;8.174;2023-07-29T06:55:50;17.60;99.90
1778;DHT22;71547;50.146;8.174;2023-07-29T06:58:18;17.50;99.90
1778;DHT22;71547;50.146;8.174;2023-07-29T07:00:46;17.50;99.90
1778;DHT22;71547;50.146;8.174;2023-07-29T07:03:13;17.50;99.90
1778;DHT22;71547;50.146;8.174;2023-07-29T07:05:41;17.60;99.90
1778;DHT22;71547;50.146;8.174;2023-07-29T07:08:10;17.70;99.90
1778;DHT22;71547;50.146;8.174;2023-07-29T07:10:38;17.70;99.90
1778;DHT22;71547;50.146;8.174;2023-07-29T07:13:05;17.70;99.90
1778;DHT22;71547;50.146;8.174;2023-07-29T07:15:33;17.80;99.90
1778;DHT22;71547;50.146;8.174;2023-07-29T07:18:01;17.80;99.90
1778;DHT22;71547;50.146;8.174;2023-07-29T07:20:29;17.90;99.90
1778;DHT22;71547;50.146;8.174;2023-07-29T07:22:57;17.90;99.90
1778;DHT22;71547;50.146;8.174;2023-07-29T07:25:26;18.00;99.90
1778;DHT22;71547;50.146;8.174;2023-07-29T07:27:54;18.20;99.90
1778;DHT22;71547;50.146;8.174;2023-07-29T07:30:22;18.20;99.90
1778;DHT22;71547;50.146;8.174;2023-07-29T07:32:50;18.20;99.90
1778;DHT22;71547;50.146;8.174;2023-07-29T07:35:17;18.20;99.90
1778;DHT22;71547;50.146;8.174;2023-07-29T07:37:45;18.30;99.90
1778;DHT22;71547;50.146;8.174;2023-07-29T07:40:13;18.30;99.90
1778;DHT22;71547;50.146;8.174;2023-07-29T07:42:42;18.40;99.90
1778;DHT22;71547;50.146;8.174;2023-07-29T07:45:10;18.50;99.90
1778;DHT22;71547;50.146;8.174;2023-07-29T07:47:37;18.60;99.90
1778;DHT22;71547;50.146;8.174;2023-07-29T07:50:05;18.70;99.90
1778;DHT22;71547;50.146;8.174;2023-07-29T07:52:33;18.90;99.90
1778;DHT22;71547;50.146;8.174;2023-07-29T07:55:01;19.10;99.90
1778;DHT22;71547;50.146;8.174;2023-07-29T07:57:29;19.20;99.90
1778;DHT22;71547;50.146;8.174;2023-07-29T07:59:59;19.20;99.90
1778;DHT22;71547;50.146;8.174;2023-07-29T08:02:27;19.40;99.90
1778;DHT22;71547;50.146;8.174;2023-07-29T08:04:54;19.40;99.90
1778;DHT22;71547;50.146;8.174;2023-07-29T08:07:22;19.30;99.90
1778;DHT22;71547;50.146;8.174;2023-07-29T08:09:50;19.20;99.90
1778;DHT22;71547;50.146;8.174;2023-07-29T08:12:17;19.30;99.90
1778;DHT22;71547;50.146;8.174;2023-07-29T08:14:46;19.50;99.90
1778;DHT22;71547;50.146;8.174;2023-07-29T08:17:14;19.80;99.90
1778;DHT22;71547;50.146;8.174;2023-07-29T08:19:41;19.80;99.90
1778;DHT22;71547;50.146;8.174;2023-07-29T08:22:09;19.70;99.90
1778;DHT22;71547;50.146;8.174;2023-07-29T08:24:39;19.70;99.90
1778;DHT22;71547;50.146;8.174;2023-07-29T08:27:07;19.70;99.90
1778;DHT22;71547;50.146;8.174;2023-07-29T08:29:34;19.70;99.90
1778;DHT22;71547;50.146;8.174;2023-07-29T08:32:02;19.70;99.90
1778;DHT22;71547;50.146;8.174;2023-07-29T08:34:32;19.50;99.90
1778;DHT22;71547;50.146;8.174;2023-07-29T08:37:02;19.50;99.90
1778;DHT22;71547;50.146;8.174;2023-07-29T08:39:29;19.50;99.90
1778;DHT22;71547;50.146;8.174;2023-07-29T08:42:01;19.50;99.90
1778;DHT22;71547;50.146;8.174;2023-07-29T08:44:36;19.40;99.90
1778;DHT22;71547;50.146;8.174;2023-07-29T08:47:07;19.40;99.90
1778;DHT22;71547;50.146;8.174;2023-07-29T08:49:37;19.20;99.90
1778;DHT22;71547;50.146;8.174;2023-07-29T08:52:07;19.10;99.90
1778;DHT22;71547;50.146;8.174;2023-07-29T08:54:34;19.30;99.90
1778;DHT22;71547;50.146;8.174;2023-07-29T08:57:03;19.40;99.90
1778;DHT22;71547;50.146;8.174;2023-07-29T08:59:33;19.50;99.90
1778;DHT22;71547;50.146;8.174;2023-07-29T09:02:01;19.70;99.90
1778;DHT22;71547;50.146;8.174;2023-07-29T09:04:29;19.70;99.90
1778;DHT22;71547;50.146;8.174;2023-07-29T09:06:59;20.00;99.90
1778;DHT22;71547;50.146;8.174;2023-07-29T09:09:28;20.20;99.90
1778;DHT22;71547;50.146;8.174;2023-07-29T09:11:56;20.40;99.90
1778;DHT22;71547;50.146;8.174;2023-07-29T09:14:24;20.40;99.90
1778;DHT22;71547;50.146;8.174;2023-07-29T09:16:53;20.40;99.90
1778;DHT22;71547;50.146;8.174;2023-07-29T09:19:25;20.50;99.90
1778;DHT22;71547;50.146;8.174;2023-07-29T09:21:54;20.40;99.90
1778;DHT22;71547;50.146;8.174;2023-07-29T09:24:28;20.40;99.90
1778;DHT22;71547;50.146;8.174;2023-07-29T09:27:24;20.40;99.90
1778;DHT22;71547;50.146;8.174;2023-07-29T09:29:52;20.50;99.90
1778;DHT22;71547;50.146;8.174;2023-07-29T09:32:22;20.60;99.90
1778;DHT22;71547;50.146;8.174;2023-07-29T09:34:51;20.90;99.90
1778;DHT22;71547;50.146;8.174;2023-07-29T09:37:21;20.90;99.90
1778;DHT22;71547;50.146;8.174;2023-07-29T09:39:51;20.90;99.90
1778;DHT22;71547;50.146;8.174;2023-07-29T09:42:20;20.90;99.90
1778;DHT22;71547;50.146;8.174;2023-07-29T09:44:52;21.10;99.90
1778;DHT22;71547;50.146;8.174;2023-07-29T09:47:21;21.00;99.90
1778;DHT22;71547;50.146;8.174;2023-07-29T09:49:50;20.60;99.90
1778;DHT22;71547;50.146;8.174;2023-07-29T09:52:20;21.00;99.90
1778;DHT22;71547;50.146;8.174;2023-07-29T09:54:51;21.40;99.90
1778;DHT22;71547;50.146;8.174;2023-07-29T09:57:19;21.50;99.90
1778;DHT22;71547;50.146;8.174;2023-07-29T09:59:54;21.30;99.90
1778;DHT22;71547;50.146;8.174;2023-07-29T10:02:22;20.60;99.90
1778;DHT22;71547;50.146;8.174;2023-07-29T10:04:53;20.60;99.90
1778;DHT22;71547;50.146;8.174;2023-07-29T10:07:45;20.80;99.90
1778;DHT22;71547;50.146;8.174;2023-07-29T10:10:15;21.40;99.90
1778;DHT22;71547;50.146;8.174;2023-07-29T10:12:44;21.80;99.90
1778;DHT22;71547;50.146;8.174;2023-07-29T10:15:12;21.80;99.90
1778;DHT22;71547;50.146;8.174;2023-07-29T10:17:40;22.00;99.90
1778;DHT22;71547;50.146;8.174;2023-07-29T10:20:12;22.00;99.90
1778;DHT22;71547;50.146;8.174;2023-07-29T10:22:41;21.90;99.90
1778;DHT22;71547;50.146;8.174;2023-07-29T10:25:13;21.60;99.90
1778;DHT22;71547;50.146;8.174;2023-07-29T10:27:47;21.40;99.90
1778;DHT22;71547;50.146;8.174;2023-07-29T10:30:20;21.20;99.90
1778;DHT22;71547;50.146;8.174;2023-07-29T10:32:48;21.70;99.90
1778;DHT22;71547;50.146;8.174;2023-07-29T10:35:17;22.40;99.90
1778;DHT22;71547;50.146;8.174;2023-07-29T10:37:45;22.80;99.90
1778;DHT22;71547;50.146;8.174;2023-07-29T10:40:13;23.00;99.90
1778;DHT22;71547;50.146;8.174;2023-07-29T10:43:00;23.00;99.90
1778;DHT22;71547;50.146;8.174;2023-07-29T10:45:37;22.30;99.90
1778;DHT22;71547;50.146;8.174;2023-07-29T10:48:06;22.00;99.90
1778;DHT22;71547;50.146;8.174;2023-07-29T10:50:36;21.80;99.90
1778;DHT22;71547;50.146;8.174;2023-07-29T10:53:04;21.80;99.90
1778;DHT22;71547;50.146;8.174;2023-07-29T10:55:35;21.60;99.90
1778;DHT22;71547;50.146;8.174;2023-07-29T10:58:14;21.50;99.90
1778;DHT22;71547;50.146;8.174;2023-07-29T11:00:45;21.40;99.90
1778;DHT22;71547;50.146;8.174;2023-07-29T11:03:16;21.30;99.90
1778;DHT22;71547;50.146;8.174;2023-07-29T11:05:51;21.20;99.90
1778;DHT22;71547;50.146;8.174;2023-07-29T11:08:21;21.20;99.90
1778;DHT22;71547;50.146;8.174;2023-07-29T11:11:02;21.00;99.90
1778;DHT22;71547;50.146;8.174;2023-07-29T11:13:34;20.90;99.90
1778;DHT22;71547;50.146;8.174;2023-07-29T11:16:03;20.70;99.90
1778;DHT22;71547;50.146;8.174;2023-07-29T11:18:33;20.70;99.90
1778;DHT22;71547;50.146;8.174;2023-07-29T11:21:05;20.70;99.90
1778;DHT22;71547;50.146;8.174;2023-07-29T11:23:35;20.80;99.90
1778;DHT22;71547;50.146;8.174;2023-07-29T11:26:05;20.90;99.90
1778;DHT22;71547;50.146;8.174;2023-07-29T11:28:39;20.90;99.90
1778;DHT22;71547;50.146;8.174;2023-07-29T11:31:07;21.00;99.90
1778;DHT22;71547;50.146;8.174;2023-07-29T11:33:38;21.30;99.90
1778;DHT22;71547;50.146;8.174;2023-07-29T11:36:06;22.30;99.90
1778;DHT22;71547;50.146;8.174;2023-07-29T11:38:34;22.80;99.90
1778;DHT22;71547;50.146;8.174;2023-07-29T11:41:04;22.20;99.90
1778;DHT22;71547;50.146;8.174;2023-07-29T11:43:35;21.90;99.90
1778;DHT22;71547;50.146;8.174;2023-07-29T11:46:05;22.40;99.90
1778;DHT22;71547;50.146;8.174;2023-07-29T11:48:33;23.10;99.90
1778;DHT22;71547;50.146;8.174;2023-07-29T11:51:02;23.40;99.90
1778;DHT22;71547;50.146;8.174;2023-07-29T11:53:31;23.60;99.90
1778;DHT22;71547;50.146;8.174;2023-07-29T11:55:59;23.90;99.90
1778;DHT22;71547;50.146;8.174;2023-07-29T11:58:27;23.70;99.90
1778;DHT22;71547;50.146;8.174;2023-07-29T12:00:56;24.00;99.90
1778;DHT22;71547;50.146;8.174;2023-07-29T12:03:26;23.30;99.90
1778;DHT22;71547;50.146;8.174;2023-07-29T12:05:54;23.20;99.90
1778;DHT22;71547;50.146;8.174;2023-07-29T12:08:22;23.00;99.90
1778;DHT22;71547;50.146;8.174;2023-07-29T12:10:51;23.60;99.90
1778;DHT22;71547;50.146;8.174;2023-07-29T12:13:19;23.80;99.90
1778;DHT22;71547;50.146;8.174;2023-07-29T12:15:51;23.00;99.90
1778;DHT22;71547;50.146;8.174;2023-07-29T12:18:31;22.60;99.90
1778;DHT22;71547;50.146;8.174;2023-07-29T12:21:03;22.50;99.90
1778;DHT22;71547;50.146;8.174;2023-07-29T12:23:31;22.40;99.90
1778;DHT22;71547;50.146;8.174;2023-07-29T12:26:02;22.40;99.90
1778;DHT22;71547;50.146;8.174;2023-07-29T12:28:30;22.20;99.90
1778;DHT22;71547;50.146;8.174;2023-07-29T12:30:59;22.20;99.90
1778;DHT22;71547;50.146;8.174;2023-07-29T12:33:33;22.10;99.90
1778;DHT22;71547;50.146;8.174;2023-07-29T12:36:05;22.00;99.90
1778;DHT22;71547;50.146;8.174;2023-07-29T12:38:32;21.90;99.90
1778;DHT22;71547;50.146;8.174;2023-07-29T12:41:00;21.90;99.90
1778;DHT22;71547;50.146;8.174;2023-07-29T12:43:29;22.00;99.90
1778;DHT22;71547;50.146;8.174;2023-07-29T12:45:57;22.00;99.90
1778;DHT22;71547;50.146;8.174;2023-07-29T12:48:25;22.00;99.90
1778;DHT22;71547;50.146;8.174;2023-07-29T12:50:55;22.00;99.90
1778;DHT22;71547;50.146;8.174;2023-07-29T12:53:23;21.90;99.90
1778;DHT22;71547;50.146;8.174;2023-07-29T12:55:51;22.00;99.90
1778;DHT22;71547;50.146;8.174;2023-07-29T12:58:18;22.10;99.90
1778;DHT22;71547;50.146;8.174;2023-07-29T13:00:45;22.30;99.90
1778;DHT22;71547;50.146;8.174;2023-07-29T13:03:13;22.30;99.90
1778;DHT22;71547;50.146;8.174;2023-07-29T13:05:41;22.60;99.90
1778;DHT22;71547;50.146;8.174;2023-07-29T13:08:10;23.10;99.90
1778;DHT22;71547;50.146;8.174;2023-07-29T13:10:38;23.20;99.90
1778;DHT22;71547;50.146;8.174;2023-07-29T13:13:06;23.50;99.90
1778;DHT22;71547;50.146;8.174;2023-07-29T13:15:34;24.00;99.10
1778;DHT22;71547;50.146;8.174;2023-07-29T13:18:02;24.30;98.80
1778;DHT22;71547;50.146;8.174;2023-07-29T13:20:31;24.20;99.20
1778;DHT22;71547;50.146;8.174;2023-07-29T13:23:01;24.10;99.20
1778;DHT22;71547;50.146;8.174;2023-07-29T13:25:30;24.20;97.80
1778;DHT22;71547;50.146;8.174;2023-07-29T13:27:58;24.40;98.30
1778;DHT22;71547;50.146;8.174;2023-07-29T13:30:26;24.30;97.90
1778;DHT22;71547;50.146;8.174;2023-07-29T13:32:54;23.50;99.20
1778;DHT22;71547;50.146;8.174;2023-07-29T13:35:23;23.40;99.40
1778;DHT22;71547;50.146;8.174;2023-07-29T13:37:51;23.80;99.40
1778;DHT22;71547;50.146;8.174;2023-07-29T13:40:19;24.40;99.90
1778;DHT22;71547;50.146;8.174;2023-07-29T13:42:48;24.00;98.20
1778;DHT22;71547;50.146;8.174;2023-07-29T13:45:15;23.70;99.00
1778;DHT22;71547;50.146;8.174;2023-07-29T13:47:45;24.50;99.00
1778;DHT22;71547;50.146;8.174;2023-07-29T13:50:12;25.00;98.10
1778;DHT22;71547;50.146;8.174;2023-07-29T13:52:39;25.50;97.80
1778;DHT22;71547;50.146;8.174;2023-07-29T13:55:07;25.60;96.80
1778;DHT22;71547;50.146;8.174;2023-07-29T13:57:37;25.10;98.30
1778;DHT22;71547;50.146;8.174;2023-07-29T14:00:09;25.30;96.30
1778;DHT22;71547;50.146;8.174;2023-07-29T14:02:41;25.10;95.80
1778;DHT22;71547;50.146;8.174;2023-07-29T14:05:10;24.50;96.80
1778;DHT22;71547;50.146;8.174;2023-07-29T14:07:39;24.00;97.80
1778;DHT22;71547;50.146;8.174;2023-07-29T14:10:07;24.50;96.60
1778;DHT22;71547;50.146;8.174;2023-07-29T14:12:52;24.30;96.70
1778;DHT22;71547;50.146;8.174;2023-07-29T14:15:22;23.80;96.90
1778;DHT22;71547;50.146;8.174;2023-07-29T14:17:50;23.90;97.10
1778;DHT22;71547;50.146;8.174;2023-07-29T14:20:17;24.30;97.10
1778;DHT22;71547;50.146;8.174;2023-07-29T14:22:48;24.80;95.20
1778;DHT22;71547;50.146;8.174;2023-07-29T14:25:16;25.40;94.80
1778;DHT22;71547;50.146;8.174;2023-07-29T14:27:46;25.70;94.30
1778;DHT22;71547;50.146;8.174;2023-07-29T14:30:14;25.30;95.30
1778;DHT22;71547;50.146;8.174;2023-07-29T14:32:43;25.10;95.30
1778;DHT22;71547;50.146;8.174;2023-07-29T14:35:11;24.60;94.70
1778;DHT22;71547;50.146;8.174;2023-07-29T14:37:39;24.10;96.10
1778;DHT22;71547;50.146;8.174;2023-07-29T14:40:07;23.90;96.90
1778;DHT22;71547;50.146;8.174;2023-07-29T14:42:35;24.50;95.30
1778;DHT22;71547;50.146;8.174;2023-07-29T14:45:04;25.10;94.70
1778;DHT22;71547;50.146;8.174;2023-07-29T14:47:32;25.10;95.60
1778;DHT22;71547;50.146;8.174;2023-07-29T14:50:04;25.50;93.90
1778;DHT22;71547;50.146;8.174;2023-07-29T14:52:32;25.70;93.30
1778;DHT22;71547;50.146;8.174;2023-07-29T14:55:00;25.10;92.80
1778;DHT22;71547;50.146;8.174;2023-07-29T14:57:28;24.50;93.60
1778;DHT22;71547;50.146;8.174;2023-07-29T14:59:57;24.70;92.90
1778;DHT22;71547;50.146;8.174;2023-07-29T15:02:24;25.50;92.90
1778;DHT22;71547;50.146;8.174;2023-07-29T15:04:52;25.20;93.20
1778;DHT22;71547;50.146;8.174;2023-07-29T15:07:22;24.30;93.70
1778;DHT22;71547;50.146;8.174;2023-07-29T15:09:49;24.00;94.30
1778;DHT22;71547;50.146;8.174;2023-07-29T15:12:17;24.40;95.70
1778;DHT22;71547;50.146;8.174;2023-07-29T15:14:45;24.40;93.80
1778;DHT22;71547;50.146;8.174;2023-07-29T15:17:14;24.70;92.80
1778;DHT22;71547;50.146;8.174;2023-07-29T15:19:41;25.50;93.30
1778;DHT22;71547;50.146;8.174;2023-07-29T15:22:11;26.00;93.10
1778;DHT22;71547;50.146;8.174;2023-07-29T15:24:40;26.30;92.80
1778;DHT22;71547;50.146;8.174;2023-07-29T15:27:10;26.70;91.70
1778;DHT22;71547;50.146;8.174;2023-07-29T15:29:38;25.70;92.10
1778;DHT22;71547;50.146;8.174;2023-07-29T15:32:06;25.60;93.20
1778;DHT22;71547;50.146;8.174;2023-07-29T15:34:34;26.00;92.30
1778;DHT22;71547;50.146;8.174;2023-07-29T15:37:05;26.30;91.90
1778;DHT22;71547;50.146;8.174;2023-07-29T15:39:33;26.20;91.00
1778;DHT22;71547;50.146;8.174;2023-07-29T15:42:07;25.50;91.70
1778;DHT22;71547;50.146;8.174;2023-07-29T15:44:36;24.70;92.70
1778;DHT22;71547;50.146;8.174;2023-07-29T15:47:04;24.60;92.80
1778;DHT22;71547;50.146;8.174;2023-07-29T15:49:33;24.50;93.00
1778;DHT22;71547;50.146;8.174;2023-07-29T15:52:04;24.20;93.60
1778;DHT22;71547;50.146;8.174;2023-07-29T15:54:38;24.00;93.30
1778;DHT22;71547;50.146;8.174;2023-07-29T15:57:08;24.50;93.30
1778;DHT22;71547;50.146;8.174;2023-07-29T15:59:36;25.20;92.80